Impacts METAR Board
IDs:

KPHL - Philadelphia Intl, PA, US

Updated at: 1800 UTC 02 Oct 2022
Potential Impact None Slight Moderate High
Time 02/06Z 02/07Z 02/08Z 02/09Z 02/10Z 02/11Z 02/12Z 02/13Z 02/14Z 02/15Z 02/16Z 02/17Z 02/18Z
Temp60 60 60 60 60 59 57 56 56 57 57 57 57
Dewpt57 56 55 55 55 54 53 53 53 54 54 53 53
Altim29.93 29.92 29.92 29.92 29.93 29.95 29.97 29.99 30.01 30.02 30.03 30.03 30.04
VIS10 10 10 10 10 4 2 4 5 7 2.5 4 5
CIG7 8 12 18 16 16 20 17 13 13 12 12 12
CoverOVCOVCOVCOVCOVCOVCOVCOVCOVCOVCOVCOVCOVC
FltCatIFRIFRMVFRMVFRMVFRMVFRIFRMVFRMVFRMVFRIFRMVFRMVFR
WX-----------RARARA-RA-RARA-RARA
WDir40504050505050402020303030
WSpd10 9 10 8 8 15 10 10 12 10 19 20 20
WGst-- -- -- -- -- 24 -- -- -- -- 25 29 26
Raw hourly METARs
KPHL 020554Z 04010KT 10SM OVC007 16/14 A2993 RMK AO2 SLP133 T01560139 10172 20156 58001
KPHL 020654Z 05009KT 10SM OVC008 16/13 A2992 RMK AO2 DZB04E43 SLP130 P0000 T01560133
KPHL 020754Z 04010KT 10SM OVC012 16/13 A2992 RMK AO2 RAB26E48 SLP129 P0002 T01560128
KPHL 020905Z 05008KT 10SM OVC018 16/13 A2992 RMK AO2 RAE00 P0000 T01560128
KPHL 020954Z 05008KT 10SM OVC016 16/13 A2993 RMK AO2 RAE00 SLP134 P0000 T01560128
KPHL 021054Z 05015G24KT 4SM -RA OVC016 15/12 A2995 RMK AO2 RAB27E38B47 SLP140 P0000 T01500122
KPHL 021202Z 05010KT 2SM R09R/6000VP6000FT RA SCT015 BKN020 OVC026 14/12 A2997 RMK AO2 P0002 T01390117
KPHL 021254Z 04010KT 4SM RA FEW008 BKN017 OVC029 13/12 A2999 RMK AO2 SLP155 P0012 T01330117
KPHL 021354Z 02012KT 5SM -RA BKN013 BKN025 OVC037 13/12 A3001 RMK AO2 SLP162 P0009 T01330117
KPHL 021454Z 02010KT 7SM -RA BKN013 OVC025 14/12 A3002 RMK AO2 RAE37B53 SLP166 P0002 60023 T01390122 51017
KPHL 021554Z 03019G25KT 2 1/2SM RA BKN012 OVC018 14/12 A3003 RMK AO2 SLP168 P0016 T01390122
KPHL 021654Z 03020G29KT 4SM -RA BKN012 OVC018 14/12 A3003 RMK AO2 PK WND 03029/1653 SLP167 P0010 T01390117
KPHL 021754Z 03020G26KT 5SM RA BKN012 OVC018 14/12 A3004 RMK AO2 PK WND 03029/1713 SLP173 P0006 60055 T01390117 10144 20133 53007



Page loaded:  18:27 UTC  |   11:27 AM Pacific  |   12:27 PM Mountain  |   01:27 PM Central  |   02:27 PM Eastern

 

ADVISORIES

FORECASTS

FORECASTS

OBSERVATIONS

USER TOOLS

ABOUT US